createdAt,value
2022-11-01T00:01:47.366Z,1.60
2022-11-01T00:06:51.432Z,1.57
2022-11-01T00:11:56.006Z,1.20
2022-11-01T00:16:59.456Z,1.07
2022-11-01T00:22:02.885Z,1.53
2022-11-01T00:27:07.536Z,1.57
2022-11-01T00:32:10.844Z,1.20
2022-11-01T00:37:13.986Z,1.47
2022-11-01T00:42:18.474Z,1.60
2022-11-01T00:47:21.639Z,1.70
2022-11-01T00:52:24.763Z,1.70
2022-11-01T00:57:29.251Z,1.10
2022-11-01T01:02:32.543Z,0.87
2022-11-01T01:07:35.820Z,1.10
2022-11-01T01:12:40.419Z,1.33
2022-11-01T01:17:43.758Z,1.50
2022-11-01T01:22:47.034Z,1.60
2022-11-01T01:27:51.630Z,1.60
2022-11-01T01:32:54.846Z,2.00
2022-11-01T01:37:58.088Z,1.77
2022-11-01T01:43:02.643Z,1.50
2022-11-01T01:48:13.746Z,1.93
2022-11-01T01:53:21.967Z,1.37
2022-11-01T01:58:30.522Z,1.17
2022-11-01T02:03:35.387Z,1.27
2022-11-01T02:08:40.396Z,1.20
2022-11-01T02:13:44.919Z,0.73
2022-11-01T02:18:51.985Z,1.07
2022-11-01T02:24:25.127Z,1.30
2022-11-01T02:29:52.064Z,1.20
2022-11-01T02:34:59.740Z,0.87
2022-11-01T02:40:08.222Z,1.07
2022-11-01T02:45:28.715Z,1.23
2022-11-01T02:50:37.659Z,1.30
2022-11-01T02:55:41.277Z,1.00
2022-11-01T03:00:45.965Z,0.90
2022-11-01T03:05:58.548Z,1.20
2022-11-01T03:11:07.568Z,1.07
2022-11-01T03:16:18.317Z,1.73
2022-11-01T03:21:26.388Z,1.30
2022-11-01T03:26:33.749Z,1.30
2022-11-01T03:31:40.598Z,1.37
2022-11-01T03:36:52.056Z,2.00
2022-11-01T03:42:00.200Z,1.80
2022-11-01T03:47:03.933Z,1.50
2022-11-01T03:52:08.979Z,1.30
2022-11-01T03:57:12.162Z,1.00
2022-11-01T04:02:15.336Z,1.00
2022-11-01T04:07:19.862Z,1.80
2022-11-01T04:12:23.063Z,1.67
2022-11-01T04:17:43.821Z,1.47
2022-11-01T04:22:49.224Z,1.40
2022-11-01T04:27:52.440Z,1.17
2022-11-01T04:32:55.719Z,1.50
2022-11-01T04:38:01.243Z,1.00
2022-11-01T04:43:04.976Z,1.10
2022-11-01T04:48:12.492Z,1.10
2022-11-01T04:53:17.216Z,1.10
2022-11-01T04:58:20.395Z,1.27
2022-11-01T05:03:23.487Z,1.40
2022-11-01T05:08:28.629Z,1.53
2022-11-01T05:13:31.789Z,1.53
2022-11-01T05:18:34.949Z,1.30
2022-11-01T05:23:39.464Z,1.30
2022-11-01T05:28:42.522Z,0.83
2022-11-01T05:33:45.635Z,1.17
2022-11-01T05:38:50.171Z,1.00
2022-11-01T05:43:53.395Z,1.03
2022-11-01T05:48:56.535Z,0.90
2022-11-01T05:54:01.014Z,1.07
2022-11-01T05:59:04.300Z,0.80
2022-11-01T06:04:07.507Z,0.70
2022-11-01T06:09:12.141Z,0.63
2022-11-01T06:14:15.340Z,0.60
2022-11-01T06:19:18.515Z,0.83
2022-11-01T06:24:23.037Z,0.80
2022-11-01T06:29:26.504Z,0.80
2022-11-01T06:34:29.684Z,0.63
2022-11-01T06:39:34.177Z,1.10
2022-11-01T06:44:37.380Z,0.60
2022-11-01T06:49:40.550Z,0.60
2022-11-01T06:54:45.099Z,0.50
2022-11-01T06:59:48.328Z,0.60
2022-11-01T07:04:51.414Z,0.50
2022-11-01T07:09:56.008Z,0.43
2022-11-01T07:14:59.224Z,0.30
2022-11-01T07:20:02.419Z,0.57
2022-11-01T07:25:07.876Z,0.60
2022-11-01T07:30:12.720Z,0.40
2022-11-01T07:35:16.135Z,0.60
2022-11-01T07:40:27.474Z,0.60
2022-11-01T07:45:32.907Z,0.40
2022-11-01T07:50:36.028Z,0.30
2022-11-01T07:55:40.796Z,0.30
2022-11-01T08:00:45.383Z,0.30
2022-11-01T08:05:49.284Z,0.40
2022-11-01T08:10:53.818Z,0.53
2022-11-01T08:15:57.266Z,0.40
2022-11-01T08:21:00.601Z,0.40
2022-11-01T08:26:06.299Z,0.73
2022-11-01T08:31:10.731Z,0.43
2022-11-01T08:36:14.679Z,0.37
2022-11-01T08:41:19.133Z,0.90
2022-11-01T08:46:22.287Z,0.70
2022-11-01T08:51:26.061Z,0.67
2022-11-01T08:56:30.833Z,0.60
2022-11-01T09:01:34.191Z,0.67
2022-11-01T09:06:37.488Z,0.53
2022-11-01T09:11:41.954Z,0.50
2022-11-01T09:16:45.329Z,0.50
2022-11-01T09:21:48.608Z,0.40
2022-11-01T09:26:53.056Z,0.60
2022-11-01T09:31:56.232Z,0.83
2022-11-01T09:36:59.359Z,0.80
2022-11-01T09:42:07.270Z,0.87
2022-11-01T09:47:16.563Z,0.77
2022-11-01T09:52:22.090Z,0.80
2022-11-01T09:57:36.157Z,0.70
2022-11-01T10:03:04.010Z,0.60
2022-11-01T10:08:15.375Z,0.80
2022-11-01T10:13:33.889Z,0.90
2022-11-01T10:18:44.794Z,0.50
2022-11-01T10:23:51.071Z,0.70
2022-11-01T10:29:02.346Z,0.50
2022-11-01T10:34:11.738Z,0.50
2022-11-01T10:44:55.199Z,0.70
2022-11-01T10:50:07.024Z,0.70
2022-11-01T10:55:17.021Z,0.50
2022-11-01T11:00:23.616Z,0.80
2022-11-01T11:05:29.584Z,0.70
2022-11-01T11:10:33.213Z,0.60
2022-11-01T11:15:43.395Z,0.60
2022-11-01T11:20:51.820Z,0.70
2022-11-01T11:26:01.302Z,0.80
2022-11-01T11:31:15.565Z,0.80
2022-11-01T11:36:19.385Z,0.50
2022-11-01T11:41:29.244Z,0.70
2022-11-01T11:46:33.728Z,0.73
2022-11-01T11:51:38.544Z,0.70
2022-11-01T11:56:41.728Z,0.70
2022-11-01T12:01:48.465Z,0.50
2022-11-01T12:06:51.893Z,0.83
2022-11-01T12:11:55.053Z,0.70
2022-11-01T12:16:59.527Z,0.50
2022-11-01T12:22:04.769Z,0.60
2022-11-01T12:27:14.861Z,0.90
2022-11-01T12:32:26.036Z,0.60
2022-11-01T12:37:36.240Z,1.00
2022-11-01T12:42:48.666Z,0.70
2022-11-01T12:48:02.474Z,0.97
2022-11-01T12:53:14.279Z,0.70
2022-11-01T12:58:20.850Z,0.70
2022-11-01T13:03:38.534Z,1.07
2022-11-01T13:08:56.943Z,0.87
2022-11-01T13:14:21.872Z,1.00
2022-11-01T13:19:34.993Z,0.70
2022-11-01T13:24:43.815Z,0.70
2022-11-01T13:29:54.565Z,0.60
2022-11-01T13:35:17.853Z,0.80
2022-11-01T13:40:32.309Z,0.70
2022-11-01T13:46:04.748Z,0.60
2022-11-01T13:51:38.055Z,0.60
2022-11-01T13:56:49.674Z,0.80
2022-11-01T14:01:52.944Z,1.00
2022-11-01T14:07:15.638Z,0.93
2022-11-01T14:12:36.986Z,0.50
2022-11-01T14:18:07.545Z,0.63
2022-11-01T14:23:52.542Z,0.73
2022-11-01T14:28:59.630Z,0.50
2022-11-01T14:34:06.810Z,0.70
2022-11-01T14:39:16.866Z,0.60
2022-11-01T14:44:26.367Z,0.70
2022-11-01T14:49:37.045Z,0.53
2022-11-01T14:54:47.307Z,0.80
2022-11-01T14:59:51.980Z,0.47
2022-11-01T15:05:00.083Z,0.80
2022-11-01T15:10:06.188Z,0.70
2022-11-01T15:15:16.055Z,0.70
2022-11-01T15:20:20.252Z,0.83
2022-11-01T15:25:26.538Z,0.90
2022-11-01T15:30:33.287Z,0.60
2022-11-01T15:35:36.463Z,0.80
2022-11-01T15:40:40.552Z,0.50
2022-11-01T15:45:47.730Z,0.70
2022-11-01T15:50:53.023Z,0.80
2022-11-01T15:56:01.955Z,0.60
2022-11-01T16:01:13.184Z,0.67
2022-11-01T16:06:21.023Z,0.60
2022-11-01T16:11:26.203Z,0.77
2022-11-01T16:16:57.227Z,0.67
2022-11-01T16:22:00.427Z,0.90
2022-11-01T16:27:04.595Z,0.83
2022-11-01T16:32:16.758Z,0.93
2022-11-01T16:37:24.880Z,0.70
2022-11-01T16:42:28.635Z,1.40
2022-11-01T16:47:33.079Z,1.87
2022-11-01T16:52:36.191Z,0.90
2022-11-01T16:57:40.345Z,1.57
2022-11-01T17:02:45.011Z,1.00
2022-11-01T17:07:48.592Z,1.27
2022-11-01T17:12:57.730Z,0.73
2022-11-01T17:18:07.845Z,0.73
2022-11-01T17:23:15.630Z,0.80
2022-11-01T17:28:19.045Z,0.83
2022-11-01T17:33:23.728Z,0.70
2022-11-01T17:38:32.212Z,0.80
2022-11-01T17:43:36.079Z,0.80
2022-11-01T17:48:40.581Z,0.80
2022-11-01T17:53:44.917Z,0.90
2022-11-01T17:58:52.128Z,1.10
2022-11-01T18:03:56.961Z,0.60
2022-11-01T18:09:00.116Z,0.70
2022-11-01T18:14:10.466Z,0.93
2022-11-01T18:19:30.803Z,0.73
2022-11-01T18:24:38.321Z,0.90
2022-11-01T18:29:47.093Z,0.93
2022-11-01T18:34:57.964Z,1.03
2022-11-01T18:40:09.936Z,1.27
2022-11-01T18:45:25.597Z,1.33
2022-11-01T18:50:37.522Z,1.43
2022-11-01T18:55:47.535Z,1.30
2022-11-01T19:01:02.662Z,1.20
2022-11-01T19:06:17.483Z,1.30
2022-11-01T19:11:20.736Z,1.27
2022-11-01T19:16:24.525Z,1.23
2022-11-01T19:21:35.548Z,1.10
2022-11-01T19:26:42.199Z,1.20
2022-11-01T19:31:47.682Z,1.20
2022-11-01T19:36:53.002Z,0.93
2022-11-01T19:42:01.206Z,0.67
2022-11-01T19:47:30.023Z,0.93
2022-11-01T19:52:37.255Z,1.53
2022-11-01T19:57:43.946Z,1.00
2022-11-01T20:02:49.800Z,0.90
2022-11-01T20:08:02.473Z,1.10
2022-11-01T20:13:05.882Z,0.80
2022-11-01T20:18:09.460Z,0.90
2022-11-01T20:23:29.786Z,0.80
2022-11-01T20:28:33.172Z,0.70
2022-11-01T20:33:36.297Z,0.70
2022-11-01T20:38:41.479Z,0.63
2022-11-01T20:43:44.611Z,1.00
2022-11-01T20:48:48.299Z,0.90
2022-11-01T20:53:52.866Z,0.53
2022-11-01T20:58:56.045Z,0.87
2022-11-01T21:03:59.655Z,0.60
2022-11-01T21:09:13.387Z,0.60
2022-11-01T21:14:19.680Z,0.60
2022-11-01T21:19:24.256Z,1.20
2022-11-01T21:24:34.176Z,0.60
2022-11-01T21:29:37.982Z,1.10
2022-11-01T21:34:43.106Z,0.60
2022-11-01T21:39:47.791Z,0.80
2022-11-01T21:44:52.049Z,0.87
2022-11-01T21:49:55.641Z,0.70
2022-11-01T21:55:00.313Z,0.77
2022-11-01T22:00:04.309Z,0.90
2022-11-01T22:05:08.577Z,0.77
2022-11-01T22:10:13.626Z,0.90
2022-11-01T22:15:19.768Z,0.70
2022-11-01T22:20:22.902Z,1.10
2022-11-01T22:25:27.373Z,0.77
2022-11-01T22:30:30.457Z,1.33
2022-11-01T22:35:33.565Z,1.20
2022-11-01T22:40:38.398Z,0.90
2022-11-01T22:45:42.375Z,1.03
2022-11-01T22:50:45.595Z,0.80
2022-11-01T22:55:53.834Z,1.10
2022-11-01T23:00:58.099Z,0.70
2022-11-01T23:06:07.390Z,1.27
2022-11-01T23:11:44.650Z,1.20
2022-11-01T23:16:47.717Z,0.87
2022-11-01T23:21:50.808Z,0.93
2022-11-01T23:26:55.265Z,1.03
2022-11-01T23:31:58.356Z,1.50
2022-11-01T23:37:01.531Z,1.10
2022-11-01T23:42:11.050Z,0.83
2022-11-01T23:47:24.510Z,0.63
2022-11-01T23:52:35.884Z,0.80
2022-11-01T23:57:40.379Z,0.90
